CST,Max TemperatureF,Mean TemperatureF,Min TemperatureF,Max Dew PointF,MeanDew PointF,Min DewpointF,Max Humidity, Mean Humidity, Min Humidity, Max Sea Level PressureIn, Mean Sea Level PressureIn, Min Sea Level PressureIn, Max VisibilityMiles, Mean VisibilityMiles, Min VisibilityMiles, Max Wind SpeedMPH, Mean Wind SpeedMPH, Max Gust SpeedMPH,PrecipitationIn, CloudCover, Events, WindDirDegrees
2012-11-1,64,48,32,42,33,23,89,64,38,30.03,29.96,29.88,10,10,7,8,2,,0.00,3,,246
2012-11-2,55,46,36,37,33,31,86,63,40,30.10,30.03,29.93,10,10,10,9,3,,0.00,2,,67
2012-11-3,51,45,39,37,35,33,86,66,54,30.22,30.09,30.00,10,10,9,12,7,,0.00,5,,54
2012-11-4,51,38,26,37,30,24,100,87,48,30.29,30.23,30.17,10,4,0,5,0,,0.00,4,Fog,66
2012-11-5,44,43,42,40,38,34,92,83,68,30.17,30.10,30.06,10,7,2,10,5,16,0.04,8,Rain,101
2012-11-6,48,42,39,42,40,37,92,85,71,30.10,30.00,29.94,10,8,3,12,3,,0.01,8,Rain,246
2012-11-7,48,41,32,39,36,30,93,73,63,30.21,30.09,29.96,10,10,6,14,7,,0.00,6,Rain,325
2012-11-8,59,42,26,37,30,24,93,78,42,30.25,30.17,30.06,10,6,1,9,1,,0.00,0,,170
2012-11-9,71,56,42,53,46,36,82,60,47,30.06,29.98,29.90,10,10,10,14,4,21,0.00,2,,180
2012-11-10,81,70,60,51,46,39,60,47,22,29.97,29.93,29.86,10,10,10,20,9,31,0.00,1,,192
2012-11-11,69,53,37,57,48,34,94,78,54,30.12,29.93,29.75,10,8,2,18,12,33,0.46,7,Rain,245
2012-11-12,46,37,27,32,23,19,86,63,37,30.47,30.32,30.15,10,10,9,20,12,30,0.00,2,Snow,268
2012-11-13,50,36,23,28,23,20,88,63,31,30.57,30.50,30.46,10,10,10,6,1,,0.00,1,,107
2012-11-14,51,38,25,27,24,20,85,65,32,30.51,30.44,30.38,10,10,10,6,1,,0.00,1,,110
2012-11-15,54,40,25,32,27,21,89,70,33,30.42,30.38,30.34,10,10,8,0,0,,0.00,2,,-1
2012-11-16,60,44,27,34,29,24,89,70,33,30.48,30.44,30.40,10,10,5,5,1,,0.00,0,,53
2012-11-17,57,41,25,34,28,21,92,68,25,30.53,30.46,30.41,10,8,5,8,1,,0.00,1,,99
2012-11-18,63,44,25,37,29,22,92,64,21,30.41,30.35,30.28,10,8,4,8,1,,0.00,1,,124
2012-11-19,59,48,37,41,38,32,89,69,51,30.28,30.21,30.13,10,10,10,8,3,,0.01,3,,162
2012-11-20,62,48,34,46,39,33,100,87,50,30.22,30.13,30.08,10,7,0,10,1,,0.00,1,Fog,282
2012-11-21,64,50,35,48,41,36,100,88,53,30.30,30.22,30.13,10,3,0,7,1,,0.00,0,Fog,158
2012-11-22,70,58,46,51,44,38,83,62,37,30.13,30.03,29.91,10,10,7,15,7,24,0.05,5,Rain,214
2012-11-23,50,39,28,37,25,17,79,57,40,30.39,30.28,30.14,10,10,10,24,14,30,0.00,2,,294
2012-11-24,37,30,23,20,17,15,72,58,44,30.39,30.26,30.04,10,10,10,10,6,,0.00,1,,260
2012-11-25,57,46,32,31,25,19,82,51,30,30.08,29.98,29.91,10,10,10,12,6,20,0.00,1,,244
2012-11-26,44,36,28,27,25,19,85,66,49,30.43,30.25,30.07,10,10,10,15,5,21,0.00,5,,12
2012-11-27,41,31,21,21,17,13,85,65,41,30.50,30.41,30.35,10,10,10,7,2,,0.00,1,,316
2012-11-28,51,35,19,27,22,16,89,70,39,30.48,30.39,30.32,10,10,8,6,1,,0.00,0,,180
2012-11-29,62,44,26,33,28,22,89,56,30,30.30,30.19,30.09,10,10,10,10,2,16,0.00,2,,181
2012-11-30,66,54,41,43,37,31,89,60,42,30.12,30.09,30.05,10,10,10,13,6,,0.00,0,,226